sensor_id;sensor_type;location;lat;lon;timestamp;P1;durP1;ratioP1;P2;durP2;ratioP2
27979;SDS011;15315;50.836;4.430;2023-03-01T00:07:12;17.10;;;9.10;;
27979;SDS011;15315;50.836;4.430;2023-03-01T00:17:13;17.85;;;8.65;;
27979;SDS011;15315;50.836;4.430;2023-03-01T00:27:13;16.48;;;8.35;;
27979;SDS011;15315;50.836;4.430;2023-03-01T00:37:14;16.60;;;8.40;;
27979;SDS011;15315;50.836;4.430;2023-03-01T00:47:15;15.85;;;7.97;;
27979;SDS011;15315;50.836;4.430;2023-03-01T00:57:15;15.15;;;8.48;;
27979;SDS011;15315;50.836;4.430;2023-03-01T01:07:16;14.82;;;8.45;;
27979;SDS011;15315;50.836;4.430;2023-03-01T01:17:16;18.83;;;8.90;;
27979;SDS011;15315;50.836;4.430;2023-03-01T01:27:16;14.48;;;8.25;;
27979;SDS011;15315;50.836;4.430;2023-03-01T01:37:17;18.02;;;8.32;;
27979;SDS011;15315;50.836;4.430;2023-03-01T01:47:18;12.73;;;7.50;;
27979;SDS011;15315;50.836;4.430;2023-03-01T01:57:23;14.20;;;8.07;;
27979;SDS011;15315;50.836;4.430;2023-03-01T02:07:45;17.20;;;8.63;;
27979;SDS011;15315;50.836;4.430;2023-03-01T02:17:47;12.85;;;7.78;;
27979;SDS011;15315;50.836;4.430;2023-03-01T02:38:03;12.80;;;7.53;;
27979;SDS011;15315;50.836;4.430;2023-03-01T02:48:08;15.32;;;8.05;;
27979;SDS011;15315;50.836;4.430;2023-03-01T02:58:08;14.88;;;7.47;;
27979;SDS011;15315;50.836;4.430;2023-03-01T03:08:09;16.73;;;8.32;;
27979;SDS011;15315;50.836;4.430;2023-03-01T03:18:12;13.52;;;8.30;;
27979;SDS011;15315;50.836;4.430;2023-03-01T03:28:14;15.60;;;9.27;;
27979;SDS011;15315;50.836;4.430;2023-03-01T03:38:17;13.50;;;9.02;;
27979;SDS011;15315;50.836;4.430;2023-03-01T03:48:21;15.98;;;8.60;;
27979;SDS011;15315;50.836;4.430;2023-03-01T03:58:22;12.38;;;8.02;;
27979;SDS011;15315;50.836;4.430;2023-03-01T04:08:23;21.50;;;8.55;;
27979;SDS011;15315;50.836;4.430;2023-03-01T04:18:24;16.52;;;8.38;;
27979;SDS011;15315;50.836;4.430;2023-03-01T04:38:52;18.65;;;8.25;;
27979;SDS011;15315;50.836;4.430;2023-03-01T04:48:52;14.43;;;8.10;;
27979;SDS011;15315;50.836;4.430;2023-03-01T04:58:53;15.00;;;8.57;;
27979;SDS011;15315;50.836;4.430;2023-03-01T05:08:53;17.75;;;9.00;;
27979;SDS011;15315;50.836;4.430;2023-03-01T05:18:54;17.33;;;8.63;;
27979;SDS011;15315;50.836;4.430;2023-03-01T05:28:55;18.33;;;8.77;;
27979;SDS011;15315;50.836;4.430;2023-03-01T05:38:58;13.30;;;8.40;;
27979;SDS011;15315;50.836;4.430;2023-03-01T05:48:59;14.73;;;9.43;;
27979;SDS011;15315;50.836;4.430;2023-03-01T05:59:01;14.83;;;8.47;;
27979;SDS011;15315;50.836;4.430;2023-03-01T06:09:05;16.08;;;9.80;;
27979;SDS011;15315;50.836;4.430;2023-03-01T06:19:09;16.97;;;9.17;;
27979;SDS011;15315;50.836;4.430;2023-03-01T06:29:09;15.27;;;8.65;;
27979;SDS011;15315;50.836;4.430;2023-03-01T06:39:09;20.98;;;9.10;;
27979;SDS011;15315;50.836;4.430;2023-03-01T06:49:10;20.58;;;8.70;;
27979;SDS011;15315;50.836;4.430;2023-03-01T06:59:10;22.15;;;9.30;;
27979;SDS011;15315;50.836;4.430;2023-03-01T07:09:11;25.85;;;9.63;;
27979;SDS011;15315;50.836;4.430;2023-03-01T07:19:11;18.25;;;9.07;;
27979;SDS011;15315;50.836;4.430;2023-03-01T07:29:11;17.67;;;8.80;;
27979;SDS011;15315;50.836;4.430;2023-03-01T07:39:12;16.70;;;8.93;;
27979;SDS011;15315;50.836;4.430;2023-03-01T07:49:12;19.35;;;9.20;;
27979;SDS011;15315;50.836;4.430;2023-03-01T07:59:13;15.23;;;9.18;;
27979;SDS011;15315;50.836;4.430;2023-03-01T08:09:13;21.35;;;8.55;;
27979;SDS011;15315;50.836;4.430;2023-03-01T08:19:14;23.10;;;8.95;;
27979;SDS011;15315;50.836;4.430;2023-03-01T08:29:15;15.52;;;9.10;;
27979;SDS011;15315;50.836;4.430;2023-03-01T08:39:16;15.90;;;9.00;;
27979;SDS011;15315;50.836;4.430;2023-03-01T08:49:19;18.48;;;10.85;;
27979;SDS011;15315;50.836;4.430;2023-03-01T08:59:20;22.45;;;10.57;;
27979;SDS011;15315;50.836;4.430;2023-03-01T09:09:21;18.63;;;9.57;;
27979;SDS011;15315;50.836;4.430;2023-03-01T09:19:21;19.48;;;9.40;;
27979;SDS011;15315;50.836;4.430;2023-03-01T09:29:24;20.02;;;10.15;;
27979;SDS011;15315;50.836;4.430;2023-03-01T09:39:25;18.38;;;9.48;;
27979;SDS011;15315;50.836;4.430;2023-03-01T09:49:30;16.55;;;9.82;;
27979;SDS011;15315;50.836;4.430;2023-03-01T09:59:37;22.73;;;9.95;;
27979;SDS011;15315;50.836;4.430;2023-03-01T10:09:50;19.30;;;9.93;;
27979;SDS011;15315;50.836;4.430;2023-03-01T10:19:50;21.48;;;10.57;;
27979;SDS011;15315;50.836;4.430;2023-03-01T10:40:13;18.27;;;10.25;;
27979;SDS011;15315;50.836;4.430;2023-03-01T10:50:21;19.77;;;9.63;;
27979;SDS011;15315;50.836;4.430;2023-03-01T11:00:23;32.95;;;10.02;;
27979;SDS011;15315;50.836;4.430;2023-03-01T11:10:26;19.48;;;10.10;;
27979;SDS011;15315;50.836;4.430;2023-03-01T11:20:29;16.40;;;8.93;;
27979;SDS011;15315;50.836;4.430;2023-03-01T11:30:47;18.15;;;9.18;;
27979;SDS011;15315;50.836;4.430;2023-03-01T11:40:57;12.82;;;8.30;;
27979;SDS011;15315;50.836;4.430;2023-03-01T11:51:04;14.18;;;8.10;;
27979;SDS011;15315;50.836;4.430;2023-03-01T12:01:12;17.05;;;8.30;;
27979;SDS011;15315;50.836;4.430;2023-03-01T12:21:37;15.88;;;8.68;;
27979;SDS011;15315;50.836;4.430;2023-03-01T12:41:55;15.85;;;8.70;;
27979;SDS011;15315;50.836;4.430;2023-03-01T12:52:00;13.93;;;8.27;;
27979;SDS011;15315;50.836;4.430;2023-03-01T13:02:27;13.05;;;7.53;;
27979;SDS011;15315;50.836;4.430;2023-03-01T13:12:41;13.98;;;7.70;;
27979;SDS011;15315;50.836;4.430;2023-03-01T13:23:02;16.40;;;7.95;;
27979;SDS011;15315;50.836;4.430;2023-03-01T13:33:33;16.05;;;7.75;;
27979;SDS011;15315;50.836;4.430;2023-03-01T13:43:41;15.45;;;8.18;;
27979;SDS011;15315;50.836;4.430;2023-03-01T13:53:44;12.15;;;7.88;;
27979;SDS011;15315;50.836;4.430;2023-03-01T14:03:46;17.63;;;8.30;;
27979;SDS011;15315;50.836;4.430;2023-03-01T14:23:47;15.30;;;7.75;;
27979;SDS011;15315;50.836;4.430;2023-03-01T14:33:53;13.63;;;7.80;;
27979;SDS011;15315;50.836;4.430;2023-03-01T14:44:03;13.90;;;8.07;;
27979;SDS011;15315;50.836;4.430;2023-03-01T14:54:28;14.82;;;6.93;;
27979;SDS011;15315;50.836;4.430;2023-03-01T15:04:29;15.02;;;8.02;;
27979;SDS011;15315;50.836;4.430;2023-03-01T15:14:41;14.95;;;8.15;;
27979;SDS011;15315;50.836;4.430;2023-03-01T15:24:46;12.98;;;7.88;;
27979;SDS011;15315;50.836;4.430;2023-03-01T15:34:48;18.77;;;9.00;;
27979;SDS011;15315;50.836;4.430;2023-03-01T15:44:49;17.70;;;8.77;;
27979;SDS011;15315;50.836;4.430;2023-03-01T15:54:49;14.30;;;7.65;;
27979;SDS011;15315;50.836;4.430;2023-03-01T16:04:50;16.90;;;7.60;;
27979;SDS011;15315;50.836;4.430;2023-03-01T16:14:51;12.98;;;7.95;;
27979;SDS011;15315;50.836;4.430;2023-03-01T16:24:53;16.00;;;7.47;;
27979;SDS011;15315;50.836;4.430;2023-03-01T16:34:54;12.95;;;7.45;;
27979;SDS011;15315;50.836;4.430;2023-03-01T16:44:55;13.43;;;7.13;;
27979;SDS011;15315;50.836;4.430;2023-03-01T16:54:55;14.27;;;6.82;;
27979;SDS011;15315;50.836;4.430;2023-03-01T17:04:56;15.13;;;6.95;;
27979;SDS011;15315;50.836;4.430;2023-03-01T17:14:59;11.37;;;6.60;;
27979;SDS011;15315;50.836;4.430;2023-03-01T17:25:02;13.35;;;6.65;;
27979;SDS011;15315;50.836;4.430;2023-03-01T17:35:03;12.18;;;7.63;;
27979;SDS011;15315;50.836;4.430;2023-03-01T17:45:03;12.05;;;7.32;;
27979;SDS011;15315;50.836;4.430;2023-03-01T17:55:04;14.35;;;8.23;;
27979;SDS011;15315;50.836;4.430;2023-03-01T18:05:05;15.27;;;8.07;;
27979;SDS011;15315;50.836;4.430;2023-03-01T18:15:06;17.45;;;8.40;;
27979;SDS011;15315;50.836;4.430;2023-03-01T18:25:07;18.10;;;9.07;;
27979;SDS011;15315;50.836;4.430;2023-03-01T18:35:08;14.52;;;7.65;;
27979;SDS011;15315;50.836;4.430;2023-03-01T18:45:08;16.02;;;8.82;;
27979;SDS011;15315;50.836;4.430;2023-03-01T18:55:09;23.92;;;9.45;;
27979;SDS011;15315;50.836;4.430;2023-03-01T19:05:10;15.98;;;8.32;;
27979;SDS011;15315;50.836;4.430;2023-03-01T19:15:10;18.10;;;8.85;;
27979;SDS011;15315;50.836;4.430;2023-03-01T19:25:11;15.90;;;9.23;;
27979;SDS011;15315;50.836;4.430;2023-03-01T19:35:11;15.70;;;8.60;;
27979;SDS011;15315;50.836;4.430;2023-03-01T19:45:11;17.15;;;9.55;;
27979;SDS011;15315;50.836;4.430;2023-03-01T19:55:12;17.25;;;8.90;;
27979;SDS011;15315;50.836;4.430;2023-03-01T20:05:12;18.98;;;10.18;;
27979;SDS011;15315;50.836;4.430;2023-03-01T20:15:13;19.45;;;11.38;;
27979;SDS011;15315;50.836;4.430;2023-03-01T20:25:13;21.35;;;11.95;;
27979;SDS011;15315;50.836;4.430;2023-03-01T20:35:13;23.45;;;12.20;;
27979;SDS011;15315;50.836;4.430;2023-03-01T20:45:14;23.20;;;11.45;;
27979;SDS011;15315;50.836;4.430;2023-03-01T20:55:15;25.42;;;12.63;;
27979;SDS011;15315;50.836;4.430;2023-03-01T21:05:15;25.85;;;13.05;;
27979;SDS011;15315;50.836;4.430;2023-03-01T21:15:16;26.55;;;13.80;;
27979;SDS011;15315;50.836;4.430;2023-03-01T21:25:16;24.30;;;13.15;;
27979;SDS011;15315;50.836;4.430;2023-03-01T21:35:17;23.65;;;13.48;;
27979;SDS011;15315;50.836;4.430;2023-03-01T21:45:17;25.85;;;13.63;;
27979;SDS011;15315;50.836;4.430;2023-03-01T21:55:17;35.58;;;14.23;;
27979;SDS011;15315;50.836;4.430;2023-03-01T22:05:18;33.55;;;14.50;;
27979;SDS011;15315;50.836;4.430;2023-03-01T22:15:18;28.57;;;14.60;;
27979;SDS011;15315;50.836;4.430;2023-03-01T22:25:19;27.45;;;13.77;;
27979;SDS011;15315;50.836;4.430;2023-03-01T22:35:19;26.52;;;13.35;;
27979;SDS011;15315;50.836;4.430;2023-03-01T22:45:20;24.80;;;13.43;;
27979;SDS011;15315;50.836;4.430;2023-03-01T22:55:20;24.25;;;13.82;;
27979;SDS011;15315;50.836;4.430;2023-03-01T23:05:21;25.50;;;13.88;;
27979;SDS011;15315;50.836;4.430;2023-03-01T23:15:21;26.15;;;14.15;;
27979;SDS011;15315;50.836;4.430;2023-03-01T23:25:25;23.92;;;14.30;;
27979;SDS011;15315;50.836;4.430;2023-03-01T23:35:25;25.52;;;13.88;;
27979;SDS011;15315;50.836;4.430;2023-03-01T23:45:26;27.05;;;13.00;;
27979;SDS011;15315;50.836;4.430;2023-03-01T23:55:26;23.63;;;13.70;;
